Time;durP1;ratioP1;P1;durP2;ratioP2;P2;SDS_P1;SDS_P2;PMS_P1;PMS_P2;Temp;Humidity;BMP_temperature;BMP_pressure;BME280_temperature;BME280_humidity;BME280_pressure;Samples;Min_cycle;Max_cycle;Signal;HPM_P1;HPM_P2
2022/01/24 00:00:18;;;;;;;42.30;29.77;;;;;;;4.91;95.04;103527.78;5055740;28;20056;-37
2022/01/24 00:02:44;;;;;;;;;;;;;;;5.01;96.70;103519.84;5055577;28;20280;-37
2022/01/24 00:05:11;;;;;;;41.90;29.58;;;;;;;5.00;95.95;103522.66;5055562;28;19935;-37
2022/01/24 00:07:37;;;;;;;42.35;30.15;;;;;;;4.87;94.25;103514.78;5054115;28;20470;-37
2022/01/24 00:10:06;;;;;;;42.55;29.30;;;;;;;4.95;94.15;103525.72;5056065;28;20025;-37
2022/01/24 00:12:45;;;;;;;42.92;29.77;;;;;;;4.93;94.81;103524.13;5054714;28;20388;-37
2022/01/24 00:17:49;;;;;;;43.92;29.52;;;;;;;4.88;93.16;103522.72;5054631;28;20029;-37
2022/01/24 00:28:25;;;;;;;36.95;26.55;;;;;;;4.86;89.91;103521.97;5054974;28;20040;-37
2022/01/24 00:30:51;;;;;;;34.28;24.83;;;;;;;4.81;88.43;103515.28;5054985;28;20032;-37
2022/01/24 00:33:18;;;;;;;32.92;24.27;;;;;;;4.83;87.38;103516.00;5054643;28;20033;-37
2022/01/24 00:35:44;;;;;;;29.95;23.00;;;;;;;4.80;86.27;103510.91;5054842;28;20366;-37
2022/01/24 00:38:09;;;;;;;30.57;24.33;;;;;;;4.85;88.29;103506.88;5054400;28;20029;-37
2022/01/24 00:40:39;;;;;;;31.48;24.23;;;;;;;4.79;87.82;103499.34;5054737;28;20025;-37
2022/01/24 00:43:16;;;;;;;31.63;24.00;;;;;;;4.86;87.98;103507.72;5055012;28;20033;-37
2022/01/24 00:56:11;;;;;;;32.38;23.92;;;;;;;4.85;88.88;103506.88;5054226;28;20129;-37
2022/01/24 00:58:36;;;;;;;36.42;24.90;;;;;;;4.91;88.48;103513.53;5053763;28;20075;-37
2022/01/24 01:01:04;;;;;;;32.50;23.20;;;;;;;4.91;87.87;103502.81;5054205;28;20049;-37
2022/01/24 01:03:30;;;;;;;30.98;23.75;;;;;;;4.93;89.49;103508.91;5053998;28;20032;-37
2022/01/24 01:06:06;;;;;;;31.25;23.40;;;;;;;4.94;89.44;103502.56;5053933;28;20029;-37
2022/01/24 01:19:30;;;;;;;33.33;23.25;;;;;;;4.93;89.85;103500.88;5054177;28;20518;-37
2022/01/24 01:21:56;;;;;;;32.77;25.13;;;;;;;4.89;89.11;103496.75;5053715;28;20108;-37
2022/01/24 01:24:23;;;;;;;33.85;25.85;;;;;;;4.89;88.95;103500.28;5053520;28;20616;-37
2022/01/24 01:26:54;;;;;;;34.13;25.27;;;;;;;4.85;88.79;103484.56;5053374;28;20063;-37
2022/01/24 01:29:25;;;;;;;34.08;24.67;;;;;;;4.86;88.30;103497.84;5053140;28;20039;-37
2022/01/24 01:55:39;;;;;;;33.95;24.75;;;;;;;4.75;86.88;103508.63;5011627;28;20129;-37
2022/01/24 01:58:12;;;;;;;27.75;21.23;;;;;;;4.80;88.65;103502.88;5011714;28;20117;-37
2022/01/24 02:00:41;;;;;;;29.80;22.17;;;;;;;4.79;87.02;103512.75;5011240;28;20057;-37
2022/01/24 02:03:07;;;;;;;27.73;20.95;;;;;;;4.87;89.07;103504.03;5011373;28;20057;-37
2022/01/24 02:05:32;;;;;;;30.42;21.63;;;;;;;4.76;87.73;103490.69;5011484;28;20203;-37
2022/01/24 02:07:58;;;;;;;26.83;20.48;;;;;;;4.87;87.68;103496.00;5010797;28;20037;-37
2022/01/24 02:10:24;;;;;;;25.90;20.15;;;;;;;4.80;86.83;103481.44;5011108;28;20153;-37
2022/01/24 02:12:52;;;;;;;25.70;20.63;;;;;;;4.70;85.54;103485.84;5010943;28;20089;-37
2022/01/24 02:15:34;;;;;;;26.77;20.35;;;;;;;4.76;86.68;103490.69;5011022;28;20049;-37
2022/01/24 02:25:47;;;;;;;27.10;18.67;;;;;;;4.77;87.42;103476.31;5050793;28;20072;-37
2022/01/24 02:28:15;;;;;;;24.95;19.23;;;;;;;4.79;87.73;103477.06;5052559;28;20037;-37
2022/01/24 02:33:28;;;;;;;26.92;20.10;;;;;;;4.69;86.70;103463.56;5053167;28;20044;-37
2022/01/24 02:35:53;;;;;;;22.77;18.17;;;;;;;4.79;86.96;103475.22;5052916;28;20389;-37
2022/01/24 02:49:10;;;;;;;22.73;17.08;;;;;;;4.69;85.12;103468.06;5052201;28;20039;-37
2022/01/24 02:51:47;;;;;;;20.25;16.17;;;;;;;4.67;85.92;103470.88;5052751;28;20097;-37
2022/01/24 02:54:18;;;;;;;19.48;15.15;;;;;;;4.69;86.48;103478.81;5052879;28;20199;-37
2022/01/24 02:56:43;;;;;;;21.50;16.30;;;;;;;4.69;86.19;103476.13;5052372;28;20040;-37
2022/01/24 02:59:09;;;;;;;21.70;15.93;;;;;;;4.69;85.15;103468.06;5051141;28;20063;-37
2022/01/24 03:01:34;;;;;;;19.53;15.63;;;;;;;4.70;85.79;103467.09;5052974;28;20029;-37
2022/01/24 03:03:59;;;;;;;20.90;15.90;;;;;;;4.63;85.19;103458.69;5052929;28;20116;-37
2022/01/24 03:06:25;;;;;;;21.03;14.80;;;;;;;4.68;87.61;103456.47;5052124;28;20029;-37
2022/01/24 03:08:50;;;;;;;20.50;15.63;;;;;;;4.72;86.73;103457.94;5052655;28;20033;-37
2022/01/24 03:11:16;;;;;;;21.00;15.87;;;;;;;4.56;84.99;103439.59;5051870;28;20033;-37
2022/01/24 03:13:41;;;;;;;18.53;14.90;;;;;;;4.74;86.76;103455.13;5052570;28;20077;-37
2022/01/24 03:16:08;;;;;;;18.87;14.37;;;;;;;4.74;85.95;103460.50;5052731;28;20086;-37
2022/01/24 03:18:34;;;;;;;18.65;14.90;;;;;;;4.72;85.98;103460.59;5052132;28;20491;-37
2022/01/24 03:21:00;;;;;;;21.27;14.85;;;;;;;4.73;86.65;103459.63;5052283;28;20025;-37
2022/01/24 03:23:26;;;;;;;18.27;14.75;;;;;;;4.71;85.88;103452.72;5052499;28;20033;-37
2022/01/24 03:25:52;;;;;;;20.98;15.88;;;;;;;4.60;85.42;103442.88;5051915;28;20060;-37
2022/01/24 03:28:17;;;;;;;;;;;;;;;4.77;87.76;103455.72;5052199;28;20025;-37
2022/01/24 03:30:43;;;;;;;19.63;15.10;;;;;;;4.66;86.14;103453.09;5052630;28;19999;-37
2022/01/24 03:33:09;;;;;;;19.93;15.00;;;;;;;4.63;84.43;103456.00;5053846;28;20331;-37
2022/01/24 03:35:35;;;;;;;18.83;14.48;;;;;;;4.73;87.73;103437.34;5055947;28;20036;-37
2022/01/24 03:38:01;;;;;;;20.38;14.73;;;;;;;4.69;87.25;103446.63;5055287;28;20033;-37
2022/01/24 03:40:26;;;;;;;21.65;16.45;;;;;;;4.65;85.57;103446.88;5056202;28;20025;-37
2022/01/24 03:42:52;;;;;;;18.67;14.73;;;;;;;4.69;85.89;103452.84;5055574;28;20103;-37
2022/01/24 03:45:24;;;;;;;19.93;16.13;;;;;;;4.63;85.21;103456.88;5055420;28;20025;-37
2022/01/24 03:50:42;;;;;;;21.13;15.88;;;;;;;4.65;87.22;103457.59;5013878;28;20038;-37
2022/01/24 03:53:08;;;;;;;18.10;15.13;;;;;;;4.70;87.44;103451.84;5013862;28;20466;-37
2022/01/24 03:55:33;;;;;;;20.43;15.27;;;;;;;4.65;87.23;103449.56;5013904;28;20486;-37
2022/01/24 03:57:59;;;;;;;21.35;15.55;;;;;;;4.68;85.77;103447.59;5013102;28;20022;-37
2022/01/24 04:00:24;;;;;;;19.35;14.73;;;;;;;4.66;85.52;103447.72;5013050;28;20486;-43
2022/01/24 04:02:50;;;;;;;19.90;14.97;;;;;;;4.65;86.35;103449.56;5013020;28;20061;-37
2022/01/24 04:05:15;;;;;;;17.37;13.33;;;;;;;4.52;87.75;103416.72;5012984;28;20034;-37
2022/01/24 04:07:41;;;;;;;17.53;13.87;;;;;;;4.77;87.89;103446.81;5013158;28;20044;-37
2022/01/24 04:10:08;;;;;;;;;;;;;;;4.80;88.74;103447.41;5013661;28;20625;-37
2022/01/24 04:12:37;;;;;;;20.17;15.02;;;;;;;4.61;85.43;103436.53;5013545;28;20377;-37
2022/01/24 04:18:10;;;;;;;19.70;15.75;;;;;;;4.60;86.44;103442.88;4954654;29;20388;-37
2022/01/24 04:23:20;;;;;;;21.45;15.95;;;;;;;4.63;86.53;103440.78;4955361;29;20101;-37
2022/01/24 04:25:45;;;;;;;19.35;15.48;;;;;;;4.55;84.50;103437.06;4954185;28;20051;-37
2022/01/24 04:28:11;;;;;;;21.90;15.90;;;;;;;4.48;85.21;103426.00;4984926;28;20054;-37
2022/01/24 04:30:36;;;;;;;23.10;17.03;;;;;;;4.52;85.81;103434.63;4993512;28;20134;-37
2022/01/24 04:33:01;;;;;;;21.13;16.43;;;;;;;4.55;85.70;103440.59;4993240;28;20430;-37
2022/01/24 04:35:27;;;;;;;20.13;16.33;;;;;;;4.59;87.05;103451.91;4993040;28;20096;-37
2022/01/24 04:37:53;;;;;;;18.97;14.70;;;;;;;4.63;87.87;103450.66;4992820;28;20038;-37
2022/01/24 04:40:18;;;;;;;18.33;14.85;;;;;;;4.54;87.63;103435.34;4993302;28;20081;-37
2022/01/24 04:42:49;;;;;;;20.37;16.83;;;;;;;4.54;86.63;103443.38;4992906;28;20082;-37
2022/01/24 04:50:57;;;;;;;22.17;16.70;;;;;;;4.55;84.77;103442.44;4934774;29;20043;-37
2022/01/24 04:53:51;;;;;;;;;;;;;;;4.64;87.12;103453.22;4935270;29;20079;-37
2022/01/24 04:56:16;;;;;;;21.35;15.77;;;;;;;4.51;84.59;103446.34;4973457;28;20267;-37
2022/01/24 04:58:41;;;;;;;19.53;14.50;;;;;;;4.63;86.68;103450.66;4973094;28;20027;-37
2022/01/24 05:01:07;;;;;;;18.00;14.73;;;;;;;4.56;86.24;103447.66;4973307;28;20493;-37
2022/01/24 05:03:32;;;;;;;18.60;15.27;;;;;;;4.60;86.33;103450.94;4972893;28;20035;-37
2022/01/24 05:05:57;;;;;;;19.40;14.73;;;;;;;4.60;86.24;103453.59;4973284;28;20510;-37
2022/01/24 05:08:23;;;;;;;21.17;15.57;;;;;;;4.67;87.26;103460.16;4973085;28;20109;-37
2022/01/24 05:11:02;;;;;;;19.87;14.67;;;;;;;4.70;86.86;103454.53;4973173;28;20035;-37
2022/01/24 05:24:24;;;;;;;19.77;15.05;;;;;;;4.70;88.05;103443.81;4992525;28;20453;-37
2022/01/24 05:26:50;;;;;;;19.87;14.77;;;;;;;4.74;87.22;103456.00;4998049;28;20053;-37
2022/01/24 05:29:15;;;;;;;22.63;16.63;;;;;;;4.72;87.03;103444.53;5031728;28;20025;-37
2022/01/24 05:31:40;;;;;;;19.20;15.67;;;;;;;4.73;85.61;103446.22;5031351;28;20449;-37
2022/01/24 05:34:05;;;;;;;24.60;17.70;;;;;;;4.70;86.30;103438.47;5031501;28;20052;-37
2022/01/24 05:36:31;;;;;;;22.30;16.90;;;;;;;4.55;86.48;103413.78;5031174;28;20037;-37
2022/01/24 05:38:57;;;;;;;21.57;16.67;;;;;;;4.58;85.73;103434.97;5031163;28;20045;-37
2022/01/24 05:41:23;;;;;;;21.42;16.40;;;;;;;4.62;85.72;103444.44;5030943;28;20116;-37
2022/01/24 05:43:48;;;;;;;23.77;18.30;;;;;;;4.54;84.60;103443.38;5031434;28;20065;-37
2022/01/24 05:46:13;;;;;;;20.27;15.57;;;;;;;4.62;87.42;103448.97;5031429;28;20041;-37
2022/01/24 05:48:38;;;;;;;19.33;14.33;;;;;;;4.67;89.53;103452.09;5031646;28;20040;-37
2022/01/24 05:51:04;;;;;;;19.90;15.73;;;;;;;4.64;88.49;103442.50;5030807;28;20045;-37
2022/01/24 05:53:29;;;;;;;21.33;15.90;;;;;;;4.62;88.98;103438.25;5031229;28;20045;-37
2022/01/24 05:55:55;;;;;;;20.10;15.77;;;;;;;4.67;89.34;103436.03;5013730;28;20049;-37
2022/01/24 05:58:20;;;;;;;19.27;15.35;;;;;;;4.78;89.81;103448.50;5038429;28;20045;-37
2022/01/24 06:00:45;;;;;;;21.17;16.27;;;;;;;4.69;87.60;103441.28;5052726;28;20037;-37
2022/01/24 06:03:11;;;;;;;21.13;16.60;;;;;;;4.75;87.75;103444.28;5053001;28;20272;-37
2022/01/24 06:05:36;;;;;;;24.77;17.80;;;;;;;4.65;87.56;103451.41;5053250;28;20017;-37
2022/01/24 06:08:02;;;;;;;24.90;17.60;;;;;;;4.58;86.80;103447.50;5053669;28;20108;-37
2022/01/24 06:10:27;;;;;;;20.43;16.07;;;;;;;4.68;89.24;103445.75;5052871;28;20029;-37
2022/01/24 06:12:52;;;;;;;22.07;16.67;;;;;;;4.63;87.77;103446.13;5053316;28;20716;-37
2022/01/24 06:15:18;;;;;;;20.77;15.97;;;;;;;4.70;89.11;103454.53;5053028;28;20067;-37
2022/01/24 06:17:43;;;;;;;22.37;16.93;;;;;;;4.64;88.02;103445.19;5053466;28;20256;-37
2022/01/24 06:20:09;;;;;;;25.77;18.00;;;;;;;4.58;86.36;103451.03;5053006;28;20509;-37
2022/01/24 06:22:39;;;;;;;23.40;15.95;;;;;;;4.55;87.01;103453.16;5052966;28;20021;-37
2022/01/24 06:25:06;;;;;;;25.50;17.45;;;;;;;4.56;86.70;103458.38;5052437;28;20036;-37
2022/01/24 06:27:31;;;;;;;23.20;17.08;;;;;;;4.53;86.34;103455.09;5052826;28;20032;-38
2022/01/24 06:29:57;;;;;;;23.53;17.37;;;;;;;4.37;86.39;103445.63;5053197;28;20029;-37
2022/01/24 06:32:22;;;;;;;25.33;18.30;;;;;;;4.45;86.81;103444.16;5052552;28;20438;-37
2022/01/24 06:34:47;;;;;;;24.20;17.97;;;;;;;4.43;85.88;103452.31;5053343;28;20033;-37
2022/01/24 06:37:13;;;;;;;22.33;16.33;;;;;;;4.50;87.15;103442.81;5052844;28;20025;-37
2022/01/24 06:39:38;;;;;;;23.30;17.00;;;;;;;4.39;86.51;103440.16;5053298;28;20079;-37
2022/01/24 06:42:10;;;;;;;21.90;16.63;;;;;;;4.47;86.34;103442.19;5052695;28;20032;-37
2022/01/24 06:44:36;;;;;;;24.38;16.95;;;;;;;4.51;87.88;103446.34;5053256;28;20057;-37
2022/01/24 06:47:01;;;;;;;22.90;17.50;;;;;;;4.49;86.89;103446.47;5052582;28;20110;-37
2022/01/24 06:49:26;;;;;;;22.50;17.77;;;;;;;4.52;86.42;103456.06;5052450;28;20075;-37
2022/01/24 06:51:52;;;;;;;26.00;18.13;;;;;;;4.44;85.98;103446.00;5052910;28;20025;-37
2022/01/24 06:54:17;;;;;;;26.33;18.80;;;;;;;4.43;85.95;103455.00;5052438;28;20492;-37
2022/01/24 06:56:42;;;;;;;27.57;19.07;;;;;;;4.31;86.85;103416.69;5052343;28;20458;-37
2022/01/24 06:59:08;;;;;;;23.63;18.43;;;;;;;4.45;86.91;103454.88;5053015;28;20454;-37
2022/01/24 07:01:33;;;;;;;24.33;18.50;;;;;;;4.39;85.92;103450.84;5052848;28;20358;-37
2022/01/24 07:03:59;;;;;;;28.73;18.90;;;;;;;4.38;86.00;103460.72;5052781;28;20033;-37
2022/01/24 07:06:24;;;;;;;22.03;16.90;;;;;;;4.45;87.96;103455.72;5052342;28;20318;-37
2022/01/24 07:08:49;;;;;;;25.60;18.40;;;;;;;4.42;86.88;103458.66;5055944;28;20041;-37
2022/01/24 07:11:15;;;;;;;21.93;17.73;;;;;;;4.46;87.15;103467.31;5056663;28;20029;-37
2022/01/24 07:13:40;;;;;;;25.87;18.93;;;;;;;4.42;87.69;103466.69;5056438;28;20025;-37
2022/01/24 07:16:06;;;;;;;23.33;17.47;;;;;;;4.48;87.15;103465.34;5056846;28;20040;-37
2022/01/24 07:21:00;;;;;;;26.70;19.17;;;;;;;4.41;86.01;103466.84;5056743;28;20075;-37
2022/01/24 07:23:25;;;;;;;23.48;18.30;;;;;;;4.42;86.63;103473.88;5055926;28;20437;-37
2022/01/24 07:25:51;;;;;;;24.10;19.50;;;;;;;4.23;85.76;103458.47;5056088;28;20161;-37
2022/01/24 07:28:16;;;;;;;23.20;18.42;;;;;;;4.38;87.40;103466.09;5056470;28;20032;-37
2022/01/24 07:30:43;;;;;;;24.10;18.93;;;;;;;4.32;85.11;103469.28;5056330;28;20465;-37
2022/01/24 07:33:08;;;;;;;25.27;19.25;;;;;;;4.30;85.18;103465.88;5056104;28;20032;-37
2022/01/24 07:35:34;;;;;;;23.57;18.77;;;;;;;4.33;86.77;103476.34;5055712;28;20029;-37
2022/01/24 07:38:00;;;;;;;24.37;18.87;;;;;;;4.29;85.72;103456.13;5056485;28;20071;-37
2022/01/24 07:40:26;;;;;;;28.88;20.25;;;;;;;4.36;86.17;103462.69;5055889;28;20021;-37
2022/01/24 07:43:24;;;;;;;26.85;18.42;;;;;;;4.36;87.25;103465.38;5055909;28;20033;-37
2022/01/24 07:45:45;;;;;;;26.40;19.13;;;;;;;4.26;87.14;103456.41;5053156;28;20045;-37
2022/01/24 07:48:12;;;;;;;24.73;19.55;;;;;;;4.28;85.89;103467.81;5055418;28;20036;-37
2022/01/24 07:50:40;;;;;;;24.70;19.80;;;;;;;4.32;86.65;103477.31;5056135;28;20037;-37
2022/01/24 07:53:12;;;;;;;29.73;20.42;;;;;;;4.28;86.68;103483.91;5055499;28;20483;-37
2022/01/24 07:55:37;;;;;;;25.60;19.30;;;;;;;4.34;85.84;103490.56;5055295;28;20139;-37
2022/01/24 07:58:03;;;;;;;25.30;19.80;;;;;;;4.31;86.08;103496.19;5055462;28;20060;-37
2022/01/24 08:00:28;;;;;;;26.08;19.92;;;;;;;4.17;84.86;103483.94;5055345;28;20025;-37
2022/01/24 08:02:54;;;;;;;26.30;20.17;;;;;;;4.27;85.04;103500.94;5055630;28;20108;-37
2022/01/24 08:05:19;;;;;;;25.43;20.03;;;;;;;4.25;84.96;103500.25;5055537;28;20055;-37
2022/01/24 08:07:45;;;;;;;26.17;20.33;;;;;;;4.19;84.95;103487.31;5055272;28;20025;-37
2022/01/24 08:10:11;;;;;;;25.07;19.70;;;;;;;4.27;85.47;103500.09;5055322;28;20033;-37
2022/01/24 08:12:38;;;;;;;26.33;20.15;;;;;;;4.28;84.45;103497.28;5054838;28;20045;-37
2022/01/24 08:15:04;;;;;;;26.15;20.98;;;;;;;4.24;84.81;103497.66;5055377;28;20029;-37
2022/01/24 08:17:30;;;;;;;;;;;;;;;4.38;86.57;103508.94;5055518;28;20436;-37
2022/01/24 08:19:56;;;;;;;26.60;20.52;;;;;;;4.29;84.35;103498.97;5054820;28;19909;-37
2022/01/24 08:22:21;;;;;;;29.00;20.63;;;;;;;4.20;84.39;103488.16;5055328;28;20033;-37
2022/01/24 08:24:46;;;;;;;29.03;21.17;;;;;;;4.27;85.09;103500.09;5055035;28;20381;-37
2022/01/24 08:27:15;;;;;;;30.43;24.13;;;;;;;4.18;84.60;103490.97;5014943;28;20403;-37
2022/01/24 08:29:41;;;;;;;30.63;23.15;;;;;;;4.15;83.61;103496.59;5015151;28;20034;-37
2022/01/24 08:32:06;;;;;;;32.88;24.67;;;;;;;4.12;84.43;103494.16;5014817;28;20165;-37
2022/01/24 08:34:31;;;;;;;31.37;23.33;;;;;;;4.13;83.66;103507.41;5015441;28;20485;-37
2022/01/24 08:36:57;;;;;;;33.17;24.53;;;;;;;4.11;83.94;103503.19;5015389;28;20088;-37
2022/01/24 08:39:22;;;;;;;31.40;24.03;;;;;;;4.09;85.06;103505.94;5015388;28;20034;-37
2022/01/24 08:42:15;;;;;;;29.70;23.30;;;;;;;4.06;85.85;103498.19;5014721;28;20119;-37
2022/01/24 08:45:43;;;;;;;31.20;23.95;;;;;;;4.08;86.31;103500.72;5014895;28;20038;-37
2022/01/24 08:47:19;;;;;;;33.90;24.00;;;;;;;4.17;86.08;103516.06;5015587;28;20347;-37
2022/01/24 08:49:44;;;;;;;34.63;25.42;;;;;;;4.18;84.78;103509.72;5015608;28;20028;-37
2022/01/24 08:52:10;;;;;;;32.47;24.10;;;;;;;4.13;83.93;103518.13;5015425;28;20525;-37
2022/01/24 08:54:35;;;;;;;36.13;25.13;;;;;;;4.18;85.76;103512.41;5015020;28;20065;-37
2022/01/24 08:57:02;;;;;;;30.88;23.90;;;;;;;4.20;85.68;103515.84;5014369;28;20030;-37
2022/01/24 08:59:27;;;;;;;35.53;26.75;;;;;;;3.98;84.52;103486.38;5014745;28;20030;-37
2022/01/24 09:01:53;;;;;;;36.07;26.40;;;;;;;4.14;85.81;103509.13;5014682;28;20029;-37
2022/01/24 09:04:19;;;;;;;35.28;25.80;;;;;;;4.17;84.62;103513.38;5014807;28;20350;-37
2022/01/24 09:06:44;;;;;;;36.20;26.93;;;;;;;4.14;84.45;103513.63;5014638;28;20117;-37
2022/01/24 09:09:09;;;;;;;33.17;24.60;;;;;;;4.16;85.04;103513.53;5014522;28;20034;-37
2022/01/24 09:11:36;;;;;;;34.63;25.20;;;;;;;4.18;83.85;103515.09;5014407;28;20445;-37
2022/01/24 09:14:04;;;;;;;35.03;26.52;;;;;;;4.17;84.38;103513.38;5014866;28;20034;-37
2022/01/24 09:16:29;;;;;;;35.25;27.13;;;;;;;4.19;84.05;103518.59;5014009;28;20558;-37
2022/01/24 09:18:55;;;;;;;33.75;24.83;;;;;;;4.22;83.60;103526.41;5014284;28;20108;-37
2022/01/24 09:21:22;;;;;;;36.45;25.17;;;;;;;4.16;84.27;103509.00;5014477;28;20033;-37
2022/01/24 09:23:47;;;;;;;33.92;24.02;;;;;;;4.17;83.70;103504.50;5014156;28;20482;-37
2022/01/24 09:26:13;;;;;;;31.85;24.10;;;;;;;4.18;84.40;103501.69;5038216;28;20049;-37
2022/01/24 09:28:39;;;;;;;34.55;26.15;;;;;;;4.26;84.17;103509.97;5053733;28;20028;-37
2022/01/24 09:31:04;;;;;;;35.42;26.08;;;;;;;4.24;84.11;103517.25;5052003;28;20063;-37
2022/01/24 09:33:30;;;;;;;32.72;24.38;;;;;;;4.31;85.78;103518.47;5053643;28;20033;-37
2022/01/24 09:36:00;;;;;;;34.67;26.75;;;;;;;4.10;83.57;103494.28;5053659;28;20033;-37
2022/01/24 09:38:32;;;;;;;37.13;26.42;;;;;;;4.27;84.38;103519.69;5052256;28;20069;-37
2022/01/24 09:40:59;;;;;;;34.88;25.90;;;;;;;4.26;83.80;103518.00;5053918;28;20021;-37
2022/01/24 09:43:25;;;;;;;36.33;26.13;;;;;;;4.25;82.52;103523.50;5053589;28;20112;-37
2022/01/24 09:45:51;;;;;;;33.58;25.50;;;;;;;4.21;83.19;103506.81;5053403;28;20109;-37
2022/01/24 09:48:16;;;;;;;35.43;25.00;;;;;;;4.23;82.67;103515.56;5053185;28;20024;-37
2022/01/24 09:50:43;;;;;;;34.25;25.50;;;;;;;4.33;83.00;103516.50;5053958;28;20021;-37
2022/01/24 09:53:08;;;;;;;;;;;;;;;4.39;84.03;103517.84;5052623;28;20033;-37
2022/01/24 09:55:33;;;;;;;37.93;27.40;;;;;;;4.21;83.82;103509.50;5053660;28;19927;-37
2022/01/24 09:57:59;;;;;;;33.77;25.47;;;;;;;4.32;83.88;103514.81;5053218;28;20271;-37
2022/01/24 10:00:26;;;;;;;35.63;26.13;;;;;;;4.39;85.14;103517.84;5051970;28;20040;-37
2022/01/24 10:02:52;;;;;;;35.88;26.77;;;;;;;4.36;84.29;103521.63;5052920;28;20155;-37
2022/01/24 10:05:37;;;;;;;34.88;26.05;;;;;;;4.35;83.74;103525.28;5053198;28;20029;-37
2022/01/24 10:08:05;;;;;;;38.50;27.48;;;;;;;4.41;83.38;103520.41;5052875;28;20040;-37
2022/01/24 10:10:56;;;;;;;34.40;26.55;;;;;;;4.38;83.79;103519.66;5052992;28;20411;-37
2022/01/24 10:19:10;;;;;;;35.60;27.25;;;;;;;4.46;83.87;103513.69;5052892;28;20377;-37
2022/01/24 10:21:49;;;;;;;37.60;27.15;;;;;;;4.25;84.42;103486.00;5052697;28;20471;-37
2022/01/24 10:24:26;;;;;;;37.33;26.83;;;;;;;4.41;83.63;103507.03;5052948;28;20033;-37
2022/01/24 10:27:09;;;;;;;34.22;25.85;;;;;;;4.44;84.07;103518.34;5053187;28;20493;-37
2022/01/24 10:29:40;;;;;;;34.50;26.27;;;;;;;4.29;83.88;103508.84;5053423;28;20055;-37
2022/01/24 10:32:06;;;;;;;35.92;26.25;;;;;;;4.40;84.11;103516.88;5052935;28;20033;-37
2022/01/24 10:34:36;;;;;;;36.17;25.97;;;;;;;4.32;82.60;103509.47;5053427;28;20091;-37
2022/01/24 10:37:02;;;;;;;33.20;25.60;;;;;;;4.26;82.39;103515.31;5053066;28;20444;-37
2022/01/24 10:45:00;;;;;;;30.83;24.15;;;;;;;4.33;82.76;103513.00;5057140;28;20064;-37
2022/01/24 10:47:29;;;;;;;34.83;25.40;;;;;;;4.30;83.42;103511.44;5057108;28;20025;-37
2022/01/24 10:49:56;;;;;;;33.60;25.17;;;;;;;4.34;82.70;103495.94;5056948;28;20110;-37
2022/01/24 10:52:25;;;;;;;35.45;26.60;;;;;;;4.35;81.39;103503.03;5056750;28;20033;-37
2022/01/24 10:55:10;;;;;;;35.30;26.55;;;;;;;4.11;81.05;103505.84;5056873;28;20480;-37
2022/01/24 10:57:36;;;;;;;32.70;23.83;;;;;;;4.34;84.07;103496.81;5056383;28;20473;-37
2022/01/24 11:00:09;;;;;;;31.17;25.13;;;;;;;4.27;82.71;103487.56;5056873;28;20070;-37
2022/01/24 11:02:41;;;;;;;34.75;24.77;;;;;;;4.41;82.60;103489.13;5056207;28;20029;-37
2022/01/24 11:05:19;;;;;;;35.20;25.67;;;;;;;4.51;84.06;103489.22;5056979;28;20064;-37
2022/01/24 11:07:56;;;;;;;33.70;25.90;;;;;;;4.46;81.73;103478.03;5057017;28;20040;-37
2022/01/24 11:10:23;;;;;;;34.03;25.27;;;;;;;4.44;81.62;103469.25;5055262;28;20492;-37
2022/01/24 11:12:49;;;;;;;34.65;26.33;;;;;;;4.44;82.17;103471.91;5056306;28;20025;-37
2022/01/24 11:15:14;;;;;;;34.88;25.48;;;;;;;4.52;81.27;103478.34;5056584;28;20043;-37
2022/01/24 11:17:42;;;;;;;34.30;25.65;;;;;;;4.69;83.08;103485.00;5056198;28;20032;-37
2022/01/24 11:20:11;;;;;;;37.05;26.27;;;;;;;4.53;80.19;103479.19;5056519;28;20021;-37
2022/01/24 11:22:42;;;;;;;34.22;24.90;;;;;;;4.65;81.71;103494.28;5056084;28;20021;-37
2022/01/24 11:25:10;;;;;;;34.80;24.98;;;;;;;4.64;80.91;103485.38;5056559;28;20135;-37
2022/01/24 11:27:37;;;;;;;33.10;24.92;;;;;;;4.59;81.04;103473.34;5056132;28;20048;-37
2022/01/24 11:30:08;;;;;;;32.42;25.25;;;;;;;4.59;81.00;103484.06;5056547;28;20025;-37
2022/01/24 11:32:38;;;;;;;33.47;25.15;;;;;;;4.49;80.26;103462.53;5056233;28;20021;-37
2022/01/24 11:35:05;;;;;;;35.50;26.30;;;;;;;4.55;81.18;103482.63;5055815;28;20083;-37
2022/01/24 11:37:38;;;;;;;33.70;25.00;;;;;;;4.56;80.67;103481.63;5055898;28;20483;-37
2022/01/24 11:40:09;;;;;;;34.35;24.23;;;;;;;4.61;82.16;103482.09;5055949;28;20056;-37
2022/01/24 11:42:36;;;;;;;33.20;25.50;;;;;;;4.53;82.64;103458.59;5055717;28;20056;-37
2022/01/24 11:45:05;;;;;;;36.55;25.27;;;;;;;4.74;82.75;103481.94;5054720;28;20055;-37
2022/01/24 11:47:31;;;;;;;28.88;22.10;;;;;;;4.82;82.68;103485.66;5054333;28;20488;-37
2022/01/24 11:49:58;;;;;;;30.67;23.35;;;;;;;4.75;82.45;103479.13;5055991;28;20036;-37
2022/01/24 11:52:33;;;;;;;34.10;24.35;;;;;;;4.73;81.01;103481.06;5055336;28;20068;-37
2022/01/24 11:57:46;;;;;;;33.83;24.75;;;;;;;4.65;79.84;103451.41;5056166;28;20041;-37
2022/01/24 12:00:12;;;;;;;31.75;23.58;;;;;;;4.84;82.31;103462.28;5055029;28;20025;-37
2022/01/24 12:02:46;;;;;;;33.57;24.03;;;;;;;4.83;80.72;103465.94;5055242;28;20036;-37
2022/01/24 12:05:14;;;;;;;32.85;23.33;;;;;;;4.88;80.04;103458.34;5056153;28;20025;-37
2022/01/24 12:07:52;;;;;;;33.85;24.67;;;;;;;4.93;81.03;103459.78;5055689;28;20033;-37
2022/01/24 12:10:24;;;;;;;30.60;22.70;;;;;;;4.98;80.80;103449.50;5055836;28;20083;-37
2022/01/24 12:12:59;;;;;;;33.00;23.00;;;;;;;4.99;80.52;103456.59;5055528;28;20494;-37
2022/01/24 12:15:36;;;;;;;30.45;23.15;;;;;;;5.03;81.33;103455.34;5055763;28;20029;-41
2022/01/24 12:18:09;;;;;;;33.05;24.48;;;;;;;5.03;79.92;103460.72;5054793;28;20120;-37
2022/01/24 12:20:34;;;;;;;35.90;25.40;;;;;;;4.95;79.24;103455.16;5055351;28;20492;-37
2022/01/24 12:23:19;;;;;;;33.03;25.07;;;;;;;5.05;80.74;103448.03;5055271;28;20052;-37
2022/01/24 12:25:57;;;;;;;33.33;24.75;;;;;;;5.06;80.61;103457.75;5054965;28;20059;-37
2022/01/24 12:28:31;;;;;;;32.20;23.95;;;;;;;4.98;79.07;103457.56;5054463;28;20024;-37
2022/01/24 12:31:04;;;;;;;31.00;23.70;;;;;;;4.87;78.95;103442.38;5053544;28;20432;-37
2022/01/24 12:33:51;;;;;;;34.85;23.98;;;;;;;5.02;80.05;103448.28;5053633;28;20048;-37
2022/01/24 12:36:46;;;;;;;31.52;24.05;;;;;;;5.02;79.60;103448.28;5054839;28;20037;-37
2022/01/24 12:39:25;;;;;;;31.58;24.17;;;;;;;4.98;80.20;103442.34;5055062;28;20087;-37
2022/01/24 12:41:59;;;;;;;33.13;24.83;;;;;;;4.89;79.76;103416.31;5054777;28;20060;-37
2022/01/24 12:47:10;;;;;;;33.47;24.05;;;;;;;4.98;80.34;103410.16;5055149;28;20555;-37
2022/01/24 12:49:36;;;;;;;33.38;23.30;;;;;;;5.14;79.89;103428.47;5054481;28;20351;-37
2022/01/24 12:52:05;;;;;;;33.03;25.48;;;;;;;5.07;79.48;103429.94;5054377;28;20039;-37
2022/01/24 12:54:32;;;;;;;32.38;24.08;;;;;;;5.05;79.69;103429.25;5055072;28;20083;-37
2022/01/24 12:56:59;;;;;;;30.65;23.58;;;;;;;5.05;79.56;103429.25;5054750;28;20128;-37
2022/01/24 12:59:24;;;;;;;32.20;24.63;;;;;;;5.01;79.85;103427.81;5054326;28;20036;-37
2022/01/24 13:01:52;;;;;;;30.97;23.93;;;;;;;5.06;81.21;103420.22;5054683;28;20373;-37
2022/01/24 13:04:18;;;;;;;32.20;24.73;;;;;;;5.04;80.62;103415.00;5054415;28;20048;-37
2022/01/24 13:06:46;;;;;;;30.60;24.23;;;;;;;5.06;80.55;103413.00;5053212;28;20460;-37
2022/01/24 13:09:19;;;;;;;31.33;24.45;;;;;;;4.94;79.24;103405.19;5054441;28;20112;-37
2022/01/24 13:11:46;;;;;;;31.15;24.33;;;;;;;4.95;79.15;103404.19;5054079;28;20025;-37
2022/01/24 13:14:17;;;;;;;31.23;24.10;;;;;;;4.96;80.72;103403.22;5054088;28;20029;-37
2022/01/24 13:25:15;;;;;;;35.60;25.52;;;;;;;4.96;81.38;103417.47;5053612;28;20037;-37
2022/01/24 13:27:50;;;;;;;33.97;23.80;;;;;;;4.96;80.62;103413.94;5053625;28;20087;-37
2022/01/24 13:30:19;;;;;;;38.45;25.40;;;;;;;4.89;78.98;103411.78;5054077;28;20041;-37
2022/01/24 13:33:09;;;;;;;31.83;23.23;;;;;;;4.96;80.32;103421.97;5053940;28;20029;-37